Time;durP1;ratioP1;P1;durP2;ratioP2;P2;SDS_P1;SDS_P2;PMS_P1;PMS_P2;Temp;Humidity;BMP_temperature;BMP_pressure;BME280_temperature;BME280_humidity;BME280_pressure;Samples;Min_cycle;Max_cycle;Signal;HPM_P1;HPM_P2
2021/09/15 00:01:43;;;;;;;31.05;22.58;;;17.10;97.70;;;;;;5021598;28;20136;-71
2021/09/15 00:04:10;;;;;;;28.98;24.10;;;17.20;97.80;;;;;;5037655;28;20126;-72
2021/09/15 00:06:37;;;;;;;32.42;22.38;;;17.10;97.70;;;;;;5021590;28;20081;-72
2021/09/15 00:09:04;;;;;;;28.20;23.33;;;17.10;98.10;;;;;;5037986;28;20080;-72
2021/09/15 00:11:30;;;;;;;28.35;23.85;;;17.10;97.60;;;;;;5021678;28;20139;-72
2021/09/15 00:13:57;;;;;;;32.13;23.65;;;17.10;97.50;;;;;;5021351;28;20076;-72
2021/09/15 00:16:24;;;;;;;29.27;22.67;;;17.10;97.40;;;;;;5022181;28;20085;-72
2021/09/15 00:18:51;;;;;;;30.02;23.80;;;17.00;97.20;;;;;;5007523;28;20571;-72
2021/09/15 00:21:17;;;;;;;32.28;24.73;;;17.00;97.30;;;;;;5024804;28;20092;-72
2021/09/15 00:23:44;;;;;;;33.45;24.75;;;16.90;97.40;;;;;;5041217;28;20129;-72
2021/09/15 00:26:11;;;;;;;32.50;23.95;;;16.80;97.50;;;;;;5024776;28;20088;-72
2021/09/15 00:28:37;;;;;;;28.95;23.40;;;16.80;97.70;;;;;;5025714;28;20136;-72
2021/09/15 00:31:04;;;;;;;31.10;23.27;;;16.80;98.40;;;;;;5024277;28;20073;-70
2021/09/15 00:33:31;;;;;;;27.55;22.88;;;16.90;98.50;;;;;;5024646;28;20142;-72
2021/09/15 00:35:57;;;;;;;31.80;22.33;;;16.90;98.50;;;;;;5025067;28;20132;-73
2021/09/15 00:38:24;;;;;;;31.80;23.92;;;16.90;98.40;;;;;;5025937;28;20153;-72
2021/09/15 00:40:51;;;;;;;27.45;22.52;;;16.90;98.60;;;;;;5008034;28;20397;-72
2021/09/15 00:43:18;;;;;;;30.08;23.15;;;17.00;98.70;;;;;;5020965;28;20132;-72
2021/09/15 00:45:44;;;;;;;26.80;21.20;;;17.00;98.50;;;;;;5024794;28;20559;-72
2021/09/15 00:48:11;;;;;;;26.52;23.02;;;17.00;98.50;;;;;;5026124;28;20105;-72
2021/09/15 00:50:38;;;;;;;30.98;24.58;;;17.00;98.80;;;;;;5041903;28;20133;-72
2021/09/15 00:53:04;;;;;;;27.38;21.73;;;17.00;98.50;;;;;;5023947;28;20045;-72
2021/09/15 00:55:31;;;;;;;27.58;20.95;;;17.10;98.60;;;;;;5024543;28;20144;-72
2021/09/15 00:57:58;;;;;;;30.33;22.50;;;17.00;98.70;;;;;;5023456;28;20160;-72
2021/09/15 01:00:25;;;;;;;21.58;19.00;;;17.10;98.30;;;;;;5024009;28;20108;-72
2021/09/15 01:02:52;;;;;;;26.50;20.55;;;17.10;98.30;;;;;;5025290;28;20077;-72
2021/09/15 01:05:19;;;;;;;25.33;20.17;;;17.00;97.50;;;;;;5025452;28;20077;-72
2021/09/15 01:07:46;;;;;;;26.40;20.00;;;17.00;97.70;;;;;;5025166;28;20062;-72
2021/09/15 01:10:13;;;;;;;25.27;19.27;;;16.90;98.00;;;;;;5025867;28;20081;-72
2021/09/15 01:12:40;;;;;;;22.40;19.27;;;17.00;98.50;;;;;;5007355;28;20088;-72
2021/09/15 01:15:07;;;;;;;23.77;19.15;;;17.00;98.20;;;;;;5023791;28;20080;-72
2021/09/15 01:17:34;;;;;;;23.50;18.85;;;17.00;98.50;;;;;;4991518;28;20053;-72
2021/09/15 01:20:01;;;;;;;21.63;18.13;;;17.00;98.10;;;;;;5024238;28;20148;-72
2021/09/15 01:22:29;;;;;;;23.65;19.05;;;17.00;98.30;;;;;;5025165;28;20127;-72
2021/09/15 01:24:56;;;;;;;23.45;18.65;;;17.00;97.90;;;;;;4991646;28;20137;-72
2021/09/15 01:27:23;;;;;;;19.48;16.33;;;17.00;98.20;;;;;;5024985;28;20151;-72
2021/09/15 01:29:50;;;;;;;18.05;15.27;;;17.00;98.50;;;;;;5024830;28;20456;-72
2021/09/15 01:32:16;;;;;;;20.85;16.48;;;17.00;98.30;;;;;;5025602;28;20093;-72
2021/09/15 01:34:45;;;;;;;18.52;15.80;;;17.00;97.80;;;;;;5013880;28;20080;-73
2021/09/15 01:37:12;;;;;;;19.08;15.43;;;16.90;97.50;;;;;;5025498;28;20267;-72
2021/09/15 01:39:40;;;;;;;20.23;16.20;;;16.90;97.90;;;;;;5026308;28;20120;-72
2021/09/15 01:42:07;;;;;;;18.20;15.20;;;16.90;98.20;;;;;;5026496;28;20505;-72
2021/09/15 01:44:45;;;;;;;15.77;13.57;;;16.90;98.20;;;;;;5009891;28;20088;-72
2021/09/15 01:47:16;;;;;;;18.38;14.30;;;16.90;98.50;;;;;;5025662;28;20052;-73
2021/09/15 01:49:43;;;;;;;23.17;15.30;;;16.80;98.50;;;;;;5028514;28;20609;-72
2021/09/15 01:52:10;;;;;;;19.85;14.95;;;16.80;98.60;;;;;;5043275;28;20500;-73
2021/09/15 01:54:37;;;;;;;21.58;14.82;;;16.80;98.70;;;;;;5010698;28;20092;-71
2021/09/15 01:57:04;;;;;;;20.35;14.30;;;16.80;98.50;;;;;;5042733;28;20084;-72
2021/09/15 01:59:31;;;;;;;17.55;14.60;;;16.80;98.60;;;;;;5011371;28;20084;-72
2021/09/15 02:01:58;;;;;;;21.30;15.88;;;16.80;98.40;;;;;;5025863;28;20076;-72
2021/09/15 02:04:24;;;;;;;17.10;14.98;;;16.80;98.00;;;;;;5026810;28;20108;-72
2021/09/15 02:06:52;;;;;;;20.33;15.85;;;16.80;97.70;;;;;;5027244;28;20064;-72
2021/09/15 02:09:18;;;;;;;19.63;15.52;;;16.70;97.60;;;;;;5028796;28;20095;-72
2021/09/15 02:11:45;;;;;;;19.77;15.80;;;16.70;97.50;;;;;;5026751;28;20073;-73
2021/09/15 02:14:12;;;;;;;19.40;15.88;;;16.70;97.90;;;;;;5027640;28;20077;-72
2021/09/15 02:16:39;;;;;;;18.77;16.00;;;16.70;98.20;;;;;;5027668;28;20053;-72
2021/09/15 02:19:05;;;;;;;18.50;15.95;;;16.70;98.00;;;;;;5027550;28;20085;-72
2021/09/15 02:21:32;;;;;;;20.80;15.73;;;16.70;97.70;;;;;;5026964;28;20092;-72
2021/09/15 02:23:59;;;;;;;17.60;14.98;;;16.70;97.20;;;;;;5042915;28;20041;-72
2021/09/15 02:26:26;;;;;;;17.00;14.60;;;16.60;97.30;;;;;;5025632;28;20133;-72
2021/09/15 02:28:52;;;;;;;16.67;13.85;;;16.60;97.40;;;;;;5043605;28;20099;-72
2021/09/15 02:31:19;;;;;;;16.60;13.40;;;16.50;97.50;;;;;;5042588;28;20184;-73
2021/09/15 02:33:46;;;;;;;21.75;13.43;;;16.50;97.50;;;;;;5027422;28;20084;-72
2021/09/15 02:36:13;;;;;;;15.23;13.63;;;16.50;97.30;;;;;;5025923;28;20080;-72
2021/09/15 02:38:39;;;;;;;16.52;14.52;;;16.50;97.40;;;;;;5018486;28;20056;-72
2021/09/15 02:41:06;;;;;;;17.27;13.45;;;16.50;97.50;;;;;;5035023;28;20188;-71
2021/09/15 02:43:33;;;;;;;18.67;14.20;;;16.40;97.30;;;;;;5021181;28;20079;-72
2021/09/15 02:46:00;;;;;;;17.65;14.18;;;16.40;97.40;;;;;;5026817;28;20132;-72
2021/09/15 02:48:27;;;;;;;15.30;13.48;;;16.40;97.10;;;;;;5009488;28;20085;-72
2021/09/15 02:50:54;;;;;;;16.50;12.50;;;16.40;97.20;;;;;;5009158;28;20081;-72
2021/09/15 02:53:20;;;;;;;17.08;12.98;;;16.40;97.80;;;;;;5026255;28;20077;-72
2021/09/15 02:55:47;;;;;;;15.48;12.38;;;16.40;97.40;;;;;;5010186;28;20115;-73
2021/09/15 02:58:14;;;;;;;14.48;11.77;;;16.40;97.30;;;;;;5026554;28;20081;-72
2021/09/15 03:00:41;;;;;;;18.92;13.30;;;16.40;97.00;;;;;;5025865;28;20092;-72
2021/09/15 03:03:08;;;;;;;13.73;11.82;;;16.40;97.50;;;;;;5025889;28;20151;-72
2021/09/15 03:05:34;;;;;;;14.00;10.93;;;16.40;97.30;;;;;;5010445;28;20148;-72
2021/09/15 03:08:01;;;;;;;13.80;11.52;;;16.40;97.50;;;;;;5026774;28;20141;-73
2021/09/15 03:10:28;;;;;;;14.70;11.63;;;16.40;97.50;;;;;;5026702;28;20187;-72
2021/09/15 03:12:55;;;;;;;13.07;11.13;;;16.40;97.80;;;;;;5027277;28;20124;-72
2021/09/15 03:15:22;;;;;;;13.57;11.05;;;16.40;97.50;;;;;;5025860;28;20152;-72
2021/09/15 03:17:48;;;;;;;15.18;11.40;;;16.40;97.60;;;;;;5027200;28;20152;-72
2021/09/15 03:20:15;;;;;;;12.18;10.63;;;16.40;97.40;;;;;;5026229;28;20136;-72
2021/09/15 03:22:42;;;;;;;11.20;9.98;;;16.40;96.90;;;;;;5027331;28;20085;-72
2021/09/15 03:25:09;;;;;;;11.77;9.15;;;16.30;97.20;;;;;;5025954;28;20131;-72
2021/09/15 03:27:36;;;;;;;10.32;8.88;;;16.30;96.60;;;;;;5009272;28;20132;-72
2021/09/15 03:30:03;;;;;;;8.90;7.22;;;16.30;96.80;;;;;;5025393;28;20084;-73
2021/09/15 03:32:30;;;;;;;8.82;6.18;;;16.20;96.60;;;;;;5009796;28;20171;-72
2021/09/15 03:34:57;;;;;;;8.20;5.88;;;16.10;96.60;;;;;;5026828;28;20579;-72
2021/09/15 03:37:24;;;;;;;6.90;6.20;;;16.10;96.50;;;;;;5027106;28;20120;-72
2021/09/15 03:39:51;;;;;;;9.93;5.72;;;16.10;96.40;;;;;;5027484;28;20049;-72
2021/09/15 03:42:17;;;;;;;7.80;5.32;;;16.00;96.50;;;;;;5025189;28;20720;-72
2021/09/15 03:44:44;;;;;;;8.90;5.90;;;16.00;96.50;;;;;;5027113;28;20615;-72
2021/09/15 03:47:11;;;;;;;7.63;5.85;;;16.00;96.80;;;;;;5025099;28;20107;-72
2021/09/15 03:49:38;;;;;;;8.05;5.13;;;16.00;97.10;;;;;;5026079;28;20132;-72
2021/09/15 03:52:04;;;;;;;5.55;4.60;;;16.00;96.20;;;;;;5025749;28;20128;-72
2021/09/15 03:54:32;;;;;;;6.20;4.50;;;16.00;96.60;;;;;;5026898;28;20128;-73
2021/09/15 03:56:58;;;;;;;7.43;4.90;;;16.00;96.50;;;;;;5025649;28;20140;-72
2021/09/15 03:59:25;;;;;;;5.72;5.15;;;16.10;97.10;;;;;;5009116;28;20135;-72
2021/09/15 04:01:52;;;;;;;7.32;4.88;;;16.00;96.90;;;;;;5025138;28;20084;-72
2021/09/15 04:04:19;;;;;;;5.03;4.22;;;16.00;96.90;;;;;;4992754;28;20539;-72
2021/09/15 04:06:46;;;;;;;5.00;4.50;;;16.00;96.70;;;;;;5024872;28;20077;-72
2021/09/15 04:09:12;;;;;;;9.30;5.28;;;16.00;96.80;;;;;;5025813;28;20079;-72
2021/09/15 04:11:40;;;;;;;6.60;4.50;;;16.00;96.90;;;;;;5025219;28;20371;-72
2021/09/15 04:14:06;;;;;;;9.05;4.75;;;16.00;96.40;;;;;;5025793;28;20088;-73
2021/09/15 04:16:33;;;;;;;8.15;4.30;;;16.00;97.20;;;;;;5025917;28;20081;-73
2021/09/15 04:19:00;;;;;;;7.60;4.82;;;16.00;96.70;;;;;;5026207;28;20132;-73
2021/09/15 04:21:27;;;;;;;5.03;4.53;;;16.00;97.30;;;;;;5009319;28;20041;-73
2021/09/15 04:31:53;;;;;;;7.10;4.25;;;16.00;97.50;;;;;;5011226;28;20045;-73
2021/09/15 04:34:20;;;;;;;6.07;4.50;;;16.00;97.20;;;;;;5025127;28;20085;-73
2021/09/15 04:36:47;;;;;;;10.45;4.18;;;16.00;96.90;;;;;;5024859;28;20135;-73
2021/09/15 04:39:13;;;;;;;6.60;4.28;;;16.00;97.30;;;;;;5025269;28;20089;-73
2021/09/15 04:41:40;;;;;;;5.47;4.85;;;16.00;97.30;;;;;;5025265;28;20085;-72
2021/09/15 04:44:07;;;;;;;7.55;5.00;;;16.00;97.50;;;;;;5026133;28;20088;-73
2021/09/15 04:46:33;;;;;;;6.38;4.50;;;16.10;97.50;;;;;;5025346;28;20053;-73
2021/09/15 04:49:00;;;;;;;6.00;4.00;;;16.10;97.80;;;;;;5022394;28;20053;-73
2021/09/15 04:51:27;;;;;;;4.85;4.00;;;16.10;97.70;;;;;;5023122;28;20124;-73
2021/09/15 04:53:53;;;;;;;5.30;4.40;;;16.20;97.80;;;;;;5023840;28;20493;-73
2021/09/15 04:56:20;;;;;;;7.40;4.82;;;16.20;97.90;;;;;;5023693;28;20104;-73
2021/09/15 04:58:47;;;;;;;6.35;4.75;;;16.20;97.40;;;;;;5024243;28;20132;-73
2021/09/15 05:01:14;;;;;;;6.70;4.70;;;16.20;97.90;;;;;;5005712;28;20081;-73
2021/09/15 05:03:40;;;;;;;6.35;4.90;;;16.20;97.80;;;;;;5020490;28;20060;-73
2021/09/15 05:06:07;;;;;;;5.30;4.50;;;16.20;97.60;;;;;;5024653;28;20056;-72
2021/09/15 05:08:34;;;;;;;13.73;6.60;;;16.20;97.70;;;;;;5024133;28;20131;-72
2021/09/15 05:11:01;;;;;;;6.30;4.72;;;16.20;97.10;;;;;;5025167;28;20152;-73
2021/09/15 05:13:27;;;;;;;6.53;4.55;;;16.20;97.70;;;;;;5024363;28;20505;-73
2021/09/15 05:15:54;;;;;;;8.35;5.57;;;16.20;97.60;;;;;;5024853;28;20092;-73
2021/09/15 05:18:21;;;;;;;6.18;5.57;;;16.30;97.80;;;;;;5007484;28;20136;-73
2021/09/15 05:20:48;;;;;;;7.55;5.90;;;16.20;97.50;;;;;;5024841;28;20088;-73
2021/09/15 05:23:15;;;;;;;8.30;5.75;;;16.20;97.60;;;;;;5019908;28;20145;-74
2021/09/15 05:25:42;;;;;;;7.18;6.45;;;16.20;97.30;;;;;;4989305;28;20054;-74
2021/09/15 05:28:08;;;;;;;8.05;7.25;;;16.20;97.00;;;;;;5015471;28;20053;-73
2021/09/15 05:30:35;;;;;;;9.45;6.95;;;16.20;97.00;;;;;;5015033;28;20132;-73
2021/09/15 05:33:03;;;;;;;9.20;6.68;;;16.10;96.60;;;;;;5029177;28;20156;-73
2021/09/15 05:35:30;;;;;;;11.68;7.82;;;16.00;96.70;;;;;;5013706;28;20826;-74
2021/09/15 05:37:56;;;;;;;9.20;8.20;;;16.00;96.80;;;;;;5010975;28;20084;-73
2021/09/15 05:40:23;;;;;;;11.73;7.75;;;15.90;97.00;;;;;;5004733;28;20459;-73
2021/09/15 05:42:50;;;;;;;11.98;8.05;;;15.90;97.00;;;;;;5014099;28;20077;-73
2021/09/15 05:45:17;;;;;;;10.55;8.65;;;15.90;97.40;;;;;;5027835;28;20172;-73
2021/09/15 05:47:43;;;;;;;10.38;8.38;;;15.90;97.10;;;;;;5014378;28;20136;-73
2021/09/15 05:50:10;;;;;;;9.82;8.60;;;15.90;97.10;;;;;;5015445;28;20652;-73
2021/09/15 05:52:37;;;;;;;11.20;9.48;;;15.90;97.30;;;;;;5029486;28;20149;-73
2021/09/15 05:55:04;;;;;;;11.30;7.90;;;15.90;96.90;;;;;;5013757;28;20080;-72
2021/09/15 05:57:31;;;;;;;8.77;7.88;;;15.90;97.00;;;;;;5014896;28;20572;-73
2021/09/15 05:59:57;;;;;;;13.57;8.48;;;15.80;96.70;;;;;;5019812;28;20085;-74
2021/09/15 06:02:24;;;;;;;8.93;7.97;;;15.80;96.50;;;;;;5018622;28;20445;-73
2021/09/15 06:04:51;;;;;;;7.43;6.65;;;15.80;96.60;;;;;;5020801;28;20136;-74
2021/09/15 06:07:18;;;;;;;7.47;6.40;;;15.80;96.70;;;;;;5021144;28;20124;-72
2021/09/15 06:09:44;;;;;;;8.20;5.32;;;15.70;96.60;;;;;;5022312;28;20136;-74
2021/09/15 06:12:11;;;;;;;9.05;4.95;;;15.70;96.20;;;;;;5016079;28;20141;-74
2021/09/15 06:14:38;;;;;;;6.00;5.25;;;15.60;96.20;;;;;;5015850;28;20132;-73
2021/09/15 06:17:06;;;;;;;6.22;5.03;;;15.60;96.60;;;;;;5018439;28;20125;-73
2021/09/15 06:19:33;;;;;;;8.57;4.15;;;15.60;96.90;;;;;;5004780;28;20083;-73
2021/09/15 06:22:00;;;;;;;7.57;5.35;;;15.60;96.80;;;;;;5000109;28;20081;-72
2021/09/15 06:24:27;;;;;;;7.00;4.65;;;15.70;96.70;;;;;;5019501;28;20468;-72
2021/09/15 06:26:53;;;;;;;9.45;5.03;;;15.60;96.40;;;;;;5020993;28;20152;-72
2021/09/15 06:29:20;;;;;;;6.78;4.82;;;15.60;96.30;;;;;;5021127;28;20483;-72
2021/09/15 06:31:47;;;;;;;7.45;4.30;;;15.70;96.90;;;;;;5002911;28;20053;-72
2021/09/15 06:34:14;;;;;;;4.13;3.67;;;15.60;96.30;;;;;;4987125;28;20068;-72
2021/09/15 06:36:41;;;;;;;5.28;4.00;;;15.60;96.00;;;;;;5002274;28;20140;-72
2021/09/15 06:39:08;;;;;;;4.28;3.45;;;15.60;95.90;;;;;;5003322;28;20056;-72
2021/09/15 06:41:35;;;;;;;5.70;3.78;;;15.60;96.50;;;;;;5003115;28;20148;-72
2021/09/15 06:44:02;;;;;;;5.32;4.00;;;15.60;95.60;;;;;;5002837;28;20114;-72
2021/09/15 06:46:28;;;;;;;6.13;4.25;;;15.60;96.10;;;;;;5002509;28;20596;-72
2021/09/15 06:48:59;;;;;;;6.25;5.07;;;15.60;95.70;;;;;;5020036;28;20598;-72
2021/09/15 06:51:26;;;;;;;7.20;5.78;;;15.60;96.40;;;;;;5019805;28;20136;-72
2021/09/15 06:53:53;;;;;;;6.57;5.85;;;15.60;96.40;;;;;;5019242;28;20574;-72
2021/09/15 06:56:20;;;;;;;8.07;6.63;;;15.70;96.30;;;;;;5019361;28;20160;-72
2021/09/15 06:58:46;;;;;;;9.57;7.20;;;15.70;95.50;;;;;;5020289;28;20128;-72
2021/09/15 07:01:13;;;;;;;7.03;6.32;;;15.60;96.30;;;;;;5018122;28;20614;-72
2021/09/15 07:03:40;;;;;;;7.43;6.68;;;15.60;96.30;;;;;;5002305;28;20156;-72
2021/09/15 07:06:07;;;;;;;7.60;6.57;;;15.70;96.70;;;;;;5020049;28;20504;-72
2021/09/15 07:08:34;;;;;;;8.63;6.57;;;15.80;97.10;;;;;;5019923;28;20173;-73
2021/09/15 07:11:01;;;;;;;9.15;6.10;;;15.90;97.20;;;;;;5017887;28;20053;-73
2021/09/15 07:13:29;;;;;;;7.20;5.63;;;16.00;96.70;;;;;;5012234;28;20148;-73
2021/09/15 07:15:57;;;;;;;6.15;5.55;;;16.00;96.50;;;;;;5015470;28;20138;-73
2021/09/15 07:18:28;;;;;;;7.30;6.55;;;16.10;97.00;;;;;;5004997;28;20140;-73
2021/09/15 07:20:55;;;;;;;7.20;5.57;;;16.20;97.10;;;;;;4993334;28;20119;-73
2021/09/15 07:23:22;;;;;;;6.43;5.68;;;16.30;96.90;;;;;;5021482;28;20590;-73
2021/09/15 07:25:49;;;;;;;8.38;5.72;;;16.30;95.90;;;;;;5039161;28;20049;-73
2021/09/15 07:28:15;;;;;;;8.32;6.95;;;16.40;95.10;;;;;;5039302;28;20111;-74
2021/09/15 07:30:42;;;;;;;7.75;6.80;;;16.30;95.20;;;;;;5037982;28;20924;-73
2021/09/15 07:33:09;;;;;;;12.05;7.78;;;16.40;95.00;;;;;;5035490;28;21035;-72
2021/09/15 07:35:36;;;;;;;8.00;7.18;;;16.40;94.90;;;;;;5037930;28;20132;-76
2021/09/15 07:38:03;;;;;;;8.93;7.93;;;16.40;95.40;;;;;;5037154;28;20551;-72
2021/09/15 07:40:30;;;;;;;10.52;7.65;;;16.50;95.70;;;;;;5021743;28;20049;-72
2021/09/15 07:42:59;;;;;;;9.43;7.53;;;16.60;95.50;;;;;;5037264;28;20146;-72
2021/09/15 07:45:27;;;;;;;10.38;7.78;;;16.60;95.10;;;;;;5030509;28;20080;-72
2021/09/15 07:47:54;;;;;;;11.82;8.02;;;16.60;95.40;;;;;;5032407;28;20045;-72
2021/09/15 07:50:20;;;;;;;9.93;8.35;;;16.50;94.40;;;;;;5021082;28;20144;-72
2021/09/15 07:52:47;;;;;;;8.23;7.32;;;16.50;94.40;;;;;;5036996;28;20132;-71
2021/09/15 07:55:14;;;;;;;10.20;8.48;;;16.40;94.50;;;;;;5034309;28;20056;-71
2021/09/15 07:57:42;;;;;;;7.75;7.03;;;16.30;94.40;;;;;;5036825;28;20163;-72
2021/09/15 08:00:09;;;;;;;9.43;6.93;;;16.30;94.40;;;;;;5029293;28;20079;-71
2021/09/15 08:02:36;;;;;;;9.88;7.60;;;16.20;94.80;;;;;;5020171;28;20077;-71
2021/09/15 08:05:03;;;;;;;9.43;7.28;;;16.20;94.80;;;;;;5038005;28;20127;-71
2021/09/15 08:07:30;;;;;;;9.00;7.82;;;16.30;94.30;;;;;;5033408;28;20160;-71
2021/09/15 08:09:57;;;;;;;10.25;8.40;;;16.30;94.30;;;;;;5024810;28;20053;-72
2021/09/15 08:12:24;;;;;;;8.82;7.95;;;16.30;94.10;;;;;;5021880;28;20072;-72
2021/09/15 08:14:51;;;;;;;10.57;7.88;;;16.50;95.80;;;;;;5032226;28;20095;-71
2021/09/15 08:17:17;;;;;;;10.38;7.07;;;16.60;95.50;;;;;;5030725;28;20041;-71
2021/09/15 08:19:44;;;;;;;8.52;5.50;;;16.70;95.00;;;;;;5024885;28;20170;-72
2021/09/15 08:22:11;;;;;;;7.53;4.95;;;16.80;94.90;;;;;;5032717;28;20149;-71
2021/09/15 08:24:38;;;;;;;7.20;4.90;;;16.90;93.90;;;;;;5020873;28;20037;-71
2021/09/15 08:27:04;;;;;;;6.50;4.07;;;16.90;92.70;;;;;;5018822;28;20140;-71
2021/09/15 08:29:31;;;;;;;4.57;3.55;;;16.90;93.30;;;;;;5021268;28;20053;-72
2021/09/15 08:31:58;;;;;;;4.97;4.38;;;16.80;93.30;;;;;;5019108;28;20045;-71
2021/09/15 08:34:25;;;;;;;6.35;4.00;;;16.90;93.10;;;;;;5023966;28;20135;-71
2021/09/15 08:36:51;;;;;;;6.57;4.30;;;16.90;93.80;;;;;;5021344;28;20049;-72
2021/09/15 08:39:18;;;;;;;6.20;4.65;;;16.90;93.00;;;;;;5020341;28;20045;-71
2021/09/15 08:41:48;;;;;;;7.40;4.47;;;16.90;93.60;;;;;;5036557;28;20111;-72
2021/09/15 08:44:15;;;;;;;8.27;4.88;;;17.00;93.30;;;;;;5024445;28;20045;-71
2021/09/15 08:46:45;;;;;;;7.63;4.78;;;17.10;92.80;;;;;;5027570;28;20126;-73
2021/09/15 08:49:12;;;;;;;4.97;4.43;;;17.10;93.70;;;;;;5028243;28;20135;-73
2021/09/15 08:51:38;;;;;;;6.70;5.25;;;17.20;93.20;;;;;;5022353;28;20115;-72
2021/09/15 08:54:06;;;;;;;7.82;5.65;;;17.20;93.60;;;;;;5030285;28;20496;-73
2021/09/15 08:56:33;;;;;;;11.73;4.63;;;17.30;92.70;;;;;;5035320;28;20049;-72
2021/09/15 08:59:00;;;;;;;6.30;5.05;;;17.40;92.50;;;;;;5024459;28;20046;-73
2021/09/15 09:01:28;;;;;;;5.60;4.78;;;17.40;92.40;;;;;;5023085;28;20136;-73
2021/09/15 09:03:56;;;;;;;5.50;4.57;;;17.40;91.90;;;;;;5029086;28;20056;-73
2021/09/15 09:06:25;;;;;;;6.18;4.72;;;17.40;92.90;;;;;;5039847;28;20148;-73
2021/09/15 09:08:58;;;;;;;7.72;4.53;;;17.50;92.00;;;;;;5028909;28;20183;-73
2021/09/15 09:11:26;;;;;;;8.00;5.03;;;17.50;91.40;;;;;;5037156;28;20098;-73
2021/09/15 09:13:54;;;;;;;5.97;5.10;;;17.50;91.40;;;;;;5027584;28;20076;-74
2021/09/15 09:16:47;;;;;;;6.43;5.50;;;17.50;91.50;;;;;;5021706;28;20095;-73
2021/09/15 09:19:15;;;;;;;5.90;5.22;;;17.50;90.00;;;;;;5025830;28;20052;-73
2021/09/15 09:21:46;;;;;;;8.65;6.38;;;17.60;91.20;;;;;;5033890;28;20136;-73
2021/09/15 09:24:13;;;;;;;10.20;6.88;;;17.60;90.50;;;;;;5033607;28;20231;-73
2021/09/15 09:26:44;;;;;;;8.75;5.22;;;17.70;91.70;;;;;;5028570;28;20054;-73
2021/09/15 09:29:15;;;;;;;8.38;6.18;;;17.70;89.30;;;;;;5032063;28;20145;-73
2021/09/15 09:31:56;;;;;;;7.03;5.60;;;17.70;91.30;;;;;;5031081;28;20543;-73
2021/09/15 09:34:24;;;;;;;6.95;5.05;;;17.80;90.60;;;;;;5031999;28;20057;-73
2021/09/15 09:37:05;;;;;;;5.32;4.55;;;17.90;91.90;;;;;;5014773;28;20106;-73
2021/09/15 09:39:39;;;;;;;6.22;4.38;;;17.90;88.90;;;;;;5028839;28;20060;-73
2021/09/15 09:42:24;;;;;;;6.38;4.43;;;17.90;90.50;;;;;;5028918;28;20040;-73
2021/09/15 09:45:08;;;;;;;4.53;4.00;;;17.90;90.70;;;;;;5033278;28;20073;-72
2021/09/15 09:47:35;;;;;;;4.47;3.67;;;18.00;87.10;;;;;;5019421;28;20103;-73
2021/09/15 09:50:12;;;;;;;4.22;3.83;;;18.00;90.20;;;;;;5010473;28;20299;-73
2021/09/15 09:53:01;;;;;;;6.95;3.40;;;18.00;89.10;;;;;;5036549;28;20068;-73
2021/09/15 09:55:32;;;;;;;6.10;3.97;;;18.10;89.80;;;;;;5038794;28;20614;-73
2021/09/15 09:58:03;;;;;;;5.70;3.38;;;18.20;91.00;;;;;;5027376;28;20168;-73
2021/09/15 10:00:29;;;;;;;6.75;4.63;;;18.30;86.00;;;;;;5034978;28;20398;-73
2021/09/15 10:02:58;;;;;;;5.03;3.60;;;18.30;89.40;;;;;;5020339;28;20083;-73
2021/09/15 10:05:25;;;;;;;5.78;3.95;;;18.40;91.40;;;;;;5023583;28;20050;-73
2021/09/15 10:07:54;;;;;;;7.50;4.65;;;18.60;90.10;;;;;;5020073;28;20053;-73
2021/09/15 10:10:21;;;;;;;4.28;3.53;;;18.70;88.00;;;;;;5024192;28;20053;-72
2021/09/15 10:12:54;;;;;;;4.15;3.38;;;18.80;86.50;;;;;;5033009;28;20049;-71
2021/09/15 10:15:21;;;;;;;4.60;3.97;;;18.80;89.00;;;;;;5029510;28;20644;-72
2021/09/15 10:17:51;;;;;;;7.15;4.18;;;18.80;88.00;;;;;;5028659;28;20825;-72
2021/09/15 10:20:23;;;;;;;6.13;4.18;;;18.90;85.80;;;;;;5046671;28;20551;-72
2021/09/15 10:22:50;;;;;;;8.13;4.20;;;18.80;87.30;;;;;;5025686;28;20107;-71
2021/09/15 10:25:21;;;;;;;9.68;3.92;;;18.80;85.70;;;;;;5032920;28;20187;-72
2021/09/15 10:28:01;;;;;;;5.45;3.95;;;18.70;84.30;;;;;;5019374;28;20110;-72
2021/09/15 10:30:44;;;;;;;5.93;4.60;;;18.60;81.90;;;;;;5016172;28;20049;-73
2021/09/15 10:33:35;;;;;;;7.05;4.57;;;18.60;83.80;;;;;;5030642;28;20730;-72
2021/09/15 10:36:23;;;;;;;8.07;4.68;;;18.70;83.30;;;;;;5029261;28;20056;-72
2021/09/15 10:38:59;;;;;;;7.80;5.45;;;18.80;86.40;;;;;;5031567;28;20187;-72
2021/09/15 10:41:43;;;;;;;8.10;5.78;;;18.80;82.50;;;;;;5026831;28;20501;-72
2021/09/15 10:44:13;;;;;;;8.48;5.40;;;18.80;84.20;;;;;;5035008;28;20132;-72
2021/09/15 10:46:44;;;;;;;5.78;4.72;;;18.90;84.50;;;;;;5027635;28;20060;-72
2021/09/15 10:49:22;;;;;;;6.07;4.70;;;19.10;82.90;;;;;;5017280;28;20140;-72
2021/09/15 10:52:08;;;;;;;4.65;4.22;;;19.00;82.80;;;;;;5032726;28;20040;-71
2021/09/15 10:54:41;;;;;;;4.78;3.95;;;18.90;81.80;;;;;;5028241;28;20088;-73
2021/09/15 10:57:21;;;;;;;4.90;4.32;;;18.90;82.70;;;;;;5031957;28;20084;-72
2021/09/15 10:59:48;;;;;;;9.18;4.35;;;18.90;82.70;;;;;;5028429;28;20049;-72
2021/09/15 11:02:31;;;;;;;5.95;5.00;;;19.00;84.70;;;;;;5032889;28;20128;-72
2021/09/15 11:05:00;;;;;;;6.53;4.40;;;19.10;80.30;;;;;;5028939;28;20103;-72
2021/09/15 11:07:45;;;;;;;4.65;4.10;;;19.10;83.70;;;;;;5024230;28;20554;-72
2021/09/15 11:10:31;;;;;;;6.55;4.35;;;19.30;81.80;;;;;;5027624;28;20053;-72
2021/09/15 11:12:59;;;;;;;5.15;4.28;;;19.40;81.40;;;;;;5043523;28;20048;-72
2021/09/15 11:15:26;;;;;;;7.07;4.15;;;19.40;80.50;;;;;;5026405;28;20107;-72
2021/09/15 11:17:53;;;;;;;6.30;3.60;;;19.20;82.10;;;;;;5024789;28;20077;-72
2021/09/15 11:20:25;;;;;;;5.43;3.58;;;19.30;81.30;;;;;;5033159;28;20103;-72
2021/09/15 11:22:52;;;;;;;3.87;3.30;;;19.40;83.10;;;;;;5028449;28;20132;-70
2021/09/15 11:25:19;;;;;;;4.82;3.65;;;20.10;83.30;;;;;;5025985;28;20128;-71
2021/09/15 11:28:09;;;;;;;4.70;3.35;;;20.70;80.80;;;;;;5020618;28;20049;-72
2021/09/15 11:30:41;;;;;;;5.95;3.70;;;21.50;73.70;;;;;;5027377;28;20057;-72
2021/09/15 11:33:08;;;;;;;5.82;4.10;;;21.90;78.10;;;;;;5022983;28;20164;-72
2021/09/15 11:35:38;;;;;;;6.07;4.30;;;22.00;79.40;;;;;;5034247;28;20072;-71
2021/09/15 11:38:06;;;;;;;6.10;3.90;;;22.00;75.30;;;;;;5019425;28;20129;-71
2021/09/15 11:40:33;;;;;;;6.55;3.95;;;22.00;73.40;;;;;;5023779;28;20169;-71
2021/09/15 11:43:05;;;;;;;5.07;4.28;;;21.90;76.60;;;;;;5016988;28;20046;-72
2021/09/15 11:45:34;;;;;;;6.47;3.95;;;21.80;75.00;;;;;;5008425;28;20076;-71
2021/09/15 11:48:01;;;;;;;6.50;3.47;;;21.50;75.80;;;;;;5026800;28;20056;-71
2021/09/15 11:50:29;;;;;;;5.47;3.60;;;21.10;75.40;;;;;;5027551;28;20132;-71
2021/09/15 11:53:09;;;;;;;5.80;3.92;;;20.70;80.80;;;;;;5033683;28;20087;-71
2021/09/15 11:55:41;;;;;;;6.07;4.13;;;20.50;77.60;;;;;;5030133;28;20092;-71
2021/09/15 11:58:08;;;;;;;;;;;20.40;78.80;;;;;;5009560;28;20050;-71
2021/09/15 12:00:35;;;;;;;5.00;3.95;;;20.30;79.20;;;;;;5027687;28;20385;-71
2021/09/15 12:03:04;;;;;;;5.97;4.65;;;20.40;80.30;;;;;;5036680;28;20216;-71
2021/09/15 12:05:32;;;;;;;5.38;4.47;;;20.50;81.10;;;;;;5037058;28;20317;-71
2021/09/15 12:07:59;;;;;;;7.93;4.40;;;20.70;76.80;;;;;;5009145;28;20132;-71
2021/09/15 12:10:26;;;;;;;4.82;4.20;;;20.60;79.40;;;;;;5030085;28;20558;-71
2021/09/15 12:12:56;;;;;;;8.90;4.63;;;20.50;80.80;;;;;;5036039;28;20064;-71
2021/09/15 12:15:25;;;;;;;8.75;5.47;;;20.40;80.90;;;;;;5040850;28;20119;-71
2021/09/15 12:17:58;;;;;;;8.35;5.63;;;20.40;80.30;;;;;;5020730;28;20061;-72
2021/09/15 12:20:48;;;;;;;7.82;5.13;;;20.20;76.50;;;;;;5034341;28;20064;-74
2021/09/15 12:23:19;;;;;;;8.15;6.00;;;20.10;77.70;;;;;;5032964;28;20141;-74
2021/09/15 12:25:54;;;;;;;5.93;4.45;;;20.10;81.60;;;;;;5040080;28;20053;-74
2021/09/15 12:28:22;;;;;;;6.75;5.53;;;20.80;85.00;;;;;;5042668;28;20110;-74
2021/09/15 12:30:48;;;;;;;5.55;4.65;;;21.60;82.40;;;;;;5056624;28;20170;-74
2021/09/15 12:33:28;;;;;;;10.23;5.38;;;22.10;76.10;;;;;;5042375;28;20056;-74
2021/09/15 12:36:21;;;;;;;9.55;5.15;;;22.00;78.50;;;;;;5038833;28;20060;-74
2021/09/15 12:38:57;;;;;;;8.50;5.90;;;21.90;77.10;;;;;;5030467;28;20107;-73
2021/09/15 12:41:27;;;;;;;7.05;5.07;;;21.70;82.40;;;;;;5017896;28;20485;-73
2021/09/15 12:44:33;;;;;;;7.07;5.85;;;21.60;74.40;;;;;;5017818;28;20118;-72
2021/09/15 12:47:05;;;;;;;9.75;5.82;;;21.20;73.70;;;;;;5032107;28;20084;-73
2021/09/15 12:49:41;;;;;;;10.70;6.22;;;21.00;77.10;;;;;;5022450;28;20111;-73
2021/09/15 12:52:14;;;;;;;5.90;5.07;;;20.80;74.00;;;;;;5024529;28;20081;-72
2021/09/15 12:54:54;;;;;;;;;;;20.70;78.90;;;;;;5035593;28;20461;-73
2021/09/15 12:57:27;;;;;;;6.95;5.15;;;20.60;74.60;;;;;;5030375;28;19960;-73